Time;durP1;ratioP1;P1;durP2;ratioP2;P2;SDS_P1;SDS_P2;PMS_P1;PMS_P2;Temp;Humidity;BMP_temperature;BMP_pressure;BME280_temperature;BME280_humidity;BME280_pressure;Samples;Min_cycle;Max_cycle;Signal;HPM_P1;HPM_P2
2023/01/26 00:01:17;;;;;;;;;;;;;;;6.73;49.68;102488.31;6214757;23;20109;-87
2023/01/26 00:03:43;;;;;;;;;;;;;;;6.79;49.86;102482.25;6242111;22;19935;-86
2023/01/26 00:06:10;;;;;;;;;;;;;;;6.82;49.23;102479.25;6241399;23;19918;-87
2023/01/26 00:08:36;;;;;;;;;;;;;;;6.84;49.77;102474.56;6238499;23;20324;-86
2023/01/26 00:11:06;;;;;;;;;;;;;;;6.88;49.94;102478.53;6240632;23;20362;-86
2023/01/26 00:13:31;;;;;;;;;;;;;;;6.92;50.06;102473.66;6242552;22;19953;-88
2023/01/26 00:15:57;;;;;;;;;;;;;;;6.94;50.07;102466.31;6241201;23;19915;-87
2023/01/26 00:18:22;;;;;;;;;;;;;;;6.97;49.66;102469.44;6240587;23;19914;-86
2023/01/26 00:20:49;;;;;;;;;;;;;;;6.98;49.93;102460.41;6240375;23;20228;-87
2023/01/26 00:23:14;;;;;;;;;;;;;;;7.00;49.76;102459.41;6242314;23;19912;-86
2023/01/26 00:25:40;;;;;;;;;;;;;;;7.02;49.90;102446.75;6240374;22;20356;-86
2023/01/26 00:28:05;;;;;;;;;;;;;;;7.05;49.86;102443.72;6240467;23;19918;-87
2023/01/26 00:30:30;;;;;;;;;;;;;;;7.08;50.02;102438.00;6240221;23;19908;-88
2023/01/26 00:32:56;;;;;;;;;;;;;;;7.08;49.82;102440.69;6240369;23;19917;-87
2023/01/26 00:35:22;;;;;;;;;;;;;;;7.09;49.83;102439.66;6241403;22;19966;-87
2023/01/26 00:37:47;;;;;;;;;;;;;;;7.09;49.85;102440.50;6240635;23;19911;-86
2023/01/26 00:40:13;;;;;;;;;;;;;;;7.10;49.63;102439.47;6239690;23;19911;-86
2023/01/26 00:42:41;;;;;;;;;;;;;;;7.10;49.79;102436.81;6240276;23;20390;-87
2023/01/26 00:45:06;;;;;;;;;;;;;;;7.10;49.98;102436.00;6240896;22;19912;-86
2023/01/26 00:47:32;;;;;;;;;;;;;;;7.08;49.83;102433.50;6241033;23;19919;-87
2023/01/26 00:49:57;;;;;;;;;;;;;;;7.07;49.66;102437.19;6239874;23;20331;-86
2023/01/26 00:52:22;;;;;;;;;;;;;;;7.07;49.88;102436.38;6240022;23;19911;-87
2023/01/26 00:54:48;;;;;;;;;;;;;;;7.08;50.13;102436.19;6239816;22;19935;-87
2023/01/26 00:57:13;;;;;;;;;;;;;;;7.09;49.61;102434.34;6213479;23;19911;-86
2023/01/26 00:59:38;;;;;;;;;;;;;;;7.10;49.91;102430.66;6240943;23;19914;-86
2023/01/26 01:02:04;;;;;;;;;;;;;;;7.11;49.95;102433.13;6239431;23;19982;-86
2023/01/26 01:04:29;;;;;;;;;;;;;;;7.12;49.90;102428.63;6239552;22;20289;-86
2023/01/26 01:06:55;;;;;;;;;;;;;;;7.15;50.07;102428.25;6239380;23;19999;-86
2023/01/26 01:09:21;;;;;;;;;;;;;;;7.16;49.77;102417.41;6239979;23;19953;-86
2023/01/26 01:11:46;;;;;;;;;;;;;;;7.16;49.99;102417.41;6212754;23;20072;-86
2023/01/26 01:14:12;;;;;;;;;;;;;;;7.12;49.80;102415.31;6239234;22;19914;-86
2023/01/26 01:16:38;;;;;;;;;;;;;;;7.12;49.71;102417.97;6238979;23;19989;-86
2023/01/26 01:19:03;;;;;;;;;;;;;;;7.10;49.53;102415.50;6212270;23;19912;-87
2023/01/26 01:21:30;;;;;;;;;;;;;;;7.09;49.66;102411.19;6239471;23;19912;-87
2023/01/26 01:23:56;;;;;;;;;;;;;;;7.10;49.84;102404.84;6239352;22;19937;-87
2023/01/26 01:26:21;;;;;;;;;;;;;;;7.08;49.80;102406.84;6239018;23;20358;-87
2023/01/26 01:28:46;;;;;;;;;;;;;;;7.08;49.80;102403.38;6238341;23;19916;-86
2023/01/26 01:31:13;;;;;;;;;;;;;;;7.10;49.65;102410.16;6239631;23;19939;-86
2023/01/26 01:33:39;;;;;;;;;;;;;;;7.11;49.81;102400.31;6239179;22;19908;-87
2023/01/26 01:36:06;;;;;;;;;;;;;;;7.11;49.87;102395.81;6238178;23;19958;-87
2023/01/26 01:38:31;;;;;;;;;;;;;;;7.14;50.06;102397.28;6238614;23;19914;-87
2023/01/26 01:40:57;;;;;;;;;;;;;;;7.14;49.60;102399.94;6239143;23;19911;-86
2023/01/26 01:43:26;;;;;;;;;;;;;;;7.15;49.64;102393.59;6239646;23;20281;-86
2023/01/26 01:45:52;;;;;;;;;;;;;;;7.16;49.55;102392.59;6211591;23;19919;-87
2023/01/26 01:48:26;;;;;;;;;;;;;;;7.18;49.49;102387.91;6238080;23;20007;-87
2023/01/26 01:50:53;;;;;;;;;;;;;;;7.18;49.64;102383.44;6238635;23;19986;-87
2023/01/26 01:53:28;;;;;;;;;;;;;;;7.17;49.39;102378.25;6238982;23;19970;-87
2023/01/26 01:55:55;;;;;;;;;;;;;;;7.15;49.55;102370.44;6239046;22;19918;-86
2023/01/26 01:58:21;;;;;;;;;;;;;;;7.17;49.52;102378.25;6211489;23;20271;-87
2023/01/26 02:00:46;;;;;;;;;;;;;;;7.17;49.74;102370.25;6237301;23;19927;-87
2023/01/26 02:03:17;;;;;;;;;;;;;;;7.17;49.27;102372.91;6239075;23;19986;-86
2023/01/26 02:06:01;;;;;;;;;;;;;;;7.15;49.33;102370.44;6239524;22;19912;-86
2023/01/26 02:08:32;;;;;;;;;;;;;;;7.13;49.34;102366.31;6238730;23;19969;-86
2023/01/26 02:11:01;;;;;;;;;;;;;;;7.10;49.43;102366.69;6210091;23;20215;-86
2023/01/26 02:13:27;;;;;;;;;;;;;;;7.06;49.33;102366.25;6239343;23;19939;-86
2023/01/26 02:15:53;;;;;;;;;;;;;;;7.08;49.63;102363.38;6238514;22;20287;-86
2023/01/26 02:18:18;;;;;;;;;;;;;;;7.09;49.44;102354.38;6239419;23;19935;-86
2023/01/26 02:20:43;;;;;;;;;;;;;;;7.11;49.73;102347.84;6237978;23;19973;-86
2023/01/26 02:23:09;;;;;;;;;;;;;;;7.10;49.29;102354.19;6237872;23;19961;-87
2023/01/26 02:26:00;;;;;;;;;;;;;;;7.10;49.72;102348.84;6239017;22;19934;-86
2023/01/26 02:28:26;;;;;;;;;;;;;;;7.08;49.65;102342.06;6205935;23;19912;-87
2023/01/26 02:30:52;;;;;;;;;;;;;;;7.07;49.39;102343.09;6237069;23;20041;-87
2023/01/26 02:33:22;;;;;;;;;;;;;;;7.08;49.75;102350.06;6239032;23;19915;-86
2023/01/26 02:35:48;;;;;;;;;;;;;;;7.07;49.45;102346.56;6239406;22;19915;-86
2023/01/26 02:38:14;;;;;;;;;;;;;;;7.08;49.85;102342.91;6238990;23;19934;-87
2023/01/26 02:40:46;;;;;;;;;;;;;;;7.10;49.58;102335.53;6239497;23;19953;-87
2023/01/26 02:43:11;;;;;;;;;;;;;;;7.11;49.74;102341.69;6238618;23;19919;-87
2023/01/26 02:45:38;;;;;;;;;;;;;;;7.11;49.78;102341.69;6212480;23;20014;-86
2023/01/26 02:48:05;;;;;;;;;;;;;;;7.10;49.41;102342.72;6239363;23;19962;-86
2023/01/26 02:50:30;;;;;;;;;;;;;;;7.09;49.70;102339.22;6239784;23;19914;-86
2023/01/26 02:52:56;;;;;;;;;;;;;;;7.10;49.71;102334.72;6238398;23;19907;-86
2023/01/26 02:55:21;;;;;;;;;;;;;;;7.12;49.36;102338.00;6238448;22;19915;-86
2023/01/26 02:57:47;;;;;;;;;;;;;;;7.12;49.48;102330.00;6238411;23;19918;-87
2023/01/26 03:00:14;;;;;;;;;;;;;;;7.08;49.47;102329.56;6239006;23;19962;-86
2023/01/26 03:02:40;;;;;;;;;;;;;;;7.02;49.41;102330.31;6239731;23;20324;-87
2023/01/26 03:05:05;;;;;;;;;;;;;;;6.96;49.09;102328.38;6238815;22;19958;-86
2023/01/26 03:07:31;;;;;;;;;;;;;;;6.96;49.46;102325.72;6238749;23;19938;-86
2023/01/26 03:09:57;;;;;;;;;;;;;;;6.91;49.30;102326.28;6211897;23;19969;-86
2023/01/26 03:12:23;;;;;;;;;;;;;;;6.88;49.07;102329.31;6239753;23;19969;-86
2023/01/26 03:15:33;;;;;;;;;;;;;;;6.87;49.46;102325.00;6238993;22;20391;-86
2023/01/26 03:17:33;;;;;;;;;;;;;;;6.84;49.29;102333.38;6235916;23;19912;-87
2023/01/26 03:28:12;;;;;;;;;;;;;;;6.76;49.07;102317.47;6237735;23;20301;-87
2023/01/26 03:30:38;;;;;;;;;;;;;;;6.75;49.15;102315.81;6239167;23;20351;-86
2023/01/26 03:33:03;;;;;;;;;;;;;;;6.78;49.51;102303.94;6239331;23;19908;-86
2023/01/26 03:35:29;;;;;;;;;;;;;;;6.79;49.21;102310.94;6212155;23;19987;-86
2023/01/26 03:37:54;;;;;;;;;;;;;;;6.81;49.56;102307.06;6211502;23;20394;-86
2023/01/26 03:56:47;;;;;;;;;;;;;;;6.82;49.40;102311.41;6234491;23;19926;-86
2023/01/26 03:59:14;;;;;;;;;;;;;;;6.82;49.34;102310.56;6240723;23;19935;-87
2023/01/26 04:01:40;;;;;;;;;;;;;;;6.85;49.74;102311.03;6241353;23;20472;-86
2023/01/26 04:09:35;;;;;;;;;;;;;;;6.90;49.82;102311.31;6240997;23;19915;-86
2023/01/26 04:12:02;;;;;;;;;;;;;;;6.93;49.43;102305.59;6215187;23;19908;-85
2023/01/26 04:22:43;;;;;;;;;;;;;;;6.93;49.52;102278.94;6242299;23;20334;-86
2023/01/26 04:25:10;;;;;;;;;;;;;;;6.95;49.48;102281.44;6243592;22;19911;-87
2023/01/26 04:27:35;;;;;;;;;;;;;;;6.96;49.83;102275.91;6243487;23;19918;-86
2023/01/26 04:30:02;;;;;;;;;;;;;;;6.97;49.66;102277.56;6244384;23;19927;-86
2023/01/26 04:32:28;;;;;;;;;;;;;;;7.01;49.56;102280.69;6244231;23;19911;-86
2023/01/26 04:34:53;;;;;;;;;;;;;;;7.05;49.47;102273.97;6243725;22;19922;-85
2023/01/26 04:37:18;;;;;;;;;;;;;;;7.06;49.33;102269.47;6243149;23;19912;-86
2023/01/26 04:39:44;;;;;;;;;;;;;;;7.06;49.36;102266.81;6243710;23;19908;-86
2023/01/26 04:42:09;;;;;;;;;;;;;;;7.05;49.33;102265.16;6243547;23;19915;-87
2023/01/26 04:44:34;;;;;;;;;;;;;;;7.06;49.49;102266.81;6243143;22;19918;-86
2023/01/26 04:47:00;;;;;;;;;;;;;;;7.04;49.74;102263.50;6243818;23;19907;-85
2023/01/26 04:49:25;;;;;;;;;;;;;;;7.07;49.50;102263.94;6243193;23;19908;-87
2023/01/26 04:51:51;;;;;;;;;;;;;;;7.07;49.43;102266.63;6244165;23;20373;-85
2023/01/26 04:54:16;;;;;;;;;;;;;;;7.06;49.80;102258.81;6243481;22;20033;-84
2023/01/26 04:56:42;;;;;;;;;;;;;;;7.06;49.59;102262.31;6243703;23;19911;-85
2023/01/26 04:59:08;;;;;;;;;;;;;;;7.08;49.37;102262.13;6243260;23;19919;-86
2023/01/26 05:01:34;;;;;;;;;;;;;;;7.06;49.33;102261.47;6216305;23;19907;-85
2023/01/26 05:04:00;;;;;;;;;;;;;;;7.04;49.69;102259.00;6243608;22;20545;-86
2023/01/26 05:06:25;;;;;;;;;;;;;;;7.05;49.64;102255.31;6243239;23;19934;-86
2023/01/26 05:08:50;;;;;;;;;;;;;;;7.06;49.50;102253.47;6242960;23;20240;-86
2023/01/26 05:11:16;;;;;;;;;;;;;;;7.09;49.81;102247.78;6243371;23;19907;-85
2023/01/26 05:13:41;;;;;;;;;;;;;;;7.09;49.42;102251.25;6243794;22;20366;-85
2023/01/26 05:16:07;;;;;;;;;;;;;;;7.10;49.37;102255.56;6243484;23;19925;-86
2023/01/26 05:18:32;;;;;;;;;;;;;;;7.07;49.37;102255.97;6242916;23;20243;-86
2023/01/26 05:20:58;;;;;;;;;;;;;;;7.06;49.36;102264.97;6243522;23;19978;-85
2023/01/26 05:23:23;;;;;;;;;;;;;;;7.05;49.82;102262.50;6242688;23;19907;-86
2023/01/26 05:25:49;;;;;;;;;;;;;;;7.04;49.68;102258.19;6243333;22;19915;-85
2023/01/26 05:28:14;;;;;;;;;;;;;;;7.05;49.83;102257.16;6242578;23;20271;-84
2023/01/26 05:30:39;;;;;;;;;;;;;;;7.04;49.60;102261.66;6242758;23;19930;-85
2023/01/26 05:33:06;;;;;;;;;;;;;;;7.06;49.55;102258.81;6242164;23;19983;-86
2023/01/26 05:35:32;;;;;;;;;;;;;;;7.08;49.70;102256.78;6242179;22;19919;-86
2023/01/26 05:37:57;;;;;;;;;;;;;;;7.10;49.83;102257.41;6242277;23;19912;-86
2023/01/26 05:40:23;;;;;;;;;;;;;;;7.11;49.47;102259.88;6242524;23;19911;-86
2023/01/26 05:42:49;;;;;;;;;;;;;;;7.13;49.67;102254.38;6242149;23;19915;-85
2023/01/26 05:45:14;;;;;;;;;;;;;;;7.12;49.62;102258.88;6242113;22;19907;-86
2023/01/26 05:47:43;;;;;;;;;;;;;;;7.14;49.61;102258.69;6241799;23;19990;-85
2023/01/26 05:50:09;;;;;;;;;;;;;;;7.14;49.52;102256.00;6242405;23;19908;-86
2023/01/26 05:52:34;;;;;;;;;;;;;;;7.15;49.64;102252.34;6241401;23;19907;-86
2023/01/26 05:55:00;;;;;;;;;;;;;;;7.17;49.54;102258.31;6241728;22;19915;-86
2023/01/26 05:57:25;;;;;;;;;;;;;;;7.19;49.60;102264.28;6241553;23;19919;-86
2023/01/26 05:59:50;;;;;;;;;;;;;;;7.19;49.51;102264.28;6242495;23;19915;-86
2023/01/26 06:02:16;;;;;;;;;;;;;;;7.20;49.41;102255.28;6241635;23;19914;-87
2023/01/26 06:04:41;;;;;;;;;;;;;;;7.21;49.64;102256.94;6242296;22;19908;-85
2023/01/26 06:07:06;;;;;;;;;;;;;;;7.23;49.60;102265.56;6241114;23;19915;-86
2023/01/26 06:09:32;;;;;;;;;;;;;;;7.22;49.35;102258.59;6242328;23;19907;-85
2023/01/26 06:11:57;;;;;;;;;;;;;;;7.21;49.79;102268.41;6242572;23;20285;-85
2023/01/26 06:14:23;;;;;;;;;;;;;;;7.22;49.37;102263.91;6242210;22;19986;-86
2023/01/26 06:16:48;;;;;;;;;;;;;;;7.23;49.44;102265.56;6241532;23;19907;-85
2023/01/26 06:19:13;;;;;;;;;;;;;;;7.24;49.58;102256.56;6215193;23;19907;-85
2023/01/26 06:21:39;;;;;;;;;;;;;;;7.24;49.55;102268.03;6242662;23;19908;-85
2023/01/26 06:24:04;;;;;;;;;;;;;;;7.23;49.35;102268.22;6241931;22;19961;-86
2023/01/26 06:26:30;;;;;;;;;;;;;;;7.24;49.76;102276.03;6242160;23;19915;-86
2023/01/26 06:28:55;;;;;;;;;;;;;;;7.22;49.59;102274.56;6242095;23;19912;-86
2023/01/26 06:31:22;;;;;;;;;;;;;;;7.20;49.82;102281.94;6242479;23;19915;-86
2023/01/26 06:33:48;;;;;;;;;;;;;;;7.21;49.90;102280.94;6242090;22;19911;-86
2023/01/26 06:36:14;;;;;;;;;;;;;;;7.20;49.37;102282.75;6242490;23;19911;-86
2023/01/26 06:38:44;;;;;;;;;;;;;;;7.22;49.42;102285.25;6242030;23;19931;-85
2023/01/26 06:41:09;;;;;;;;;;;;;;;7.21;49.33;102278.25;6242066;23;20255;-86
2023/01/26 06:43:35;;;;;;;;;;;;;;;7.21;49.53;102281.75;6242242;22;19911;-86
2023/01/26 06:46:01;;;;;;;;;;;;;;;7.21;49.22;102280.94;6242070;23;19931;-86
2023/01/26 06:48:27;;;;;;;;;;;;;;;7.18;49.56;102281.28;6240913;23;19947;-85
2023/01/26 06:50:55;;;;;;;;;;;;;;;7.18;49.13;102281.28;6241940;23;19954;-85
2023/01/26 06:53:25;;;;;;;;;;;;;;;7.16;49.16;102281.47;6240942;23;20243;-87
2023/01/26 06:55:51;;;;;;;;;;;;;;;7.13;49.09;102273.84;6242026;22;19994;-85
2023/01/26 06:58:16;;;;;;;;;;;;;;;7.12;49.18;102277.53;6241419;23;19931;-85
2023/01/26 07:00:41;;;;;;;;;;;;;;;7.10;49.16;102286.72;6242233;23;20512;-85
2023/01/26 07:03:08;;;;;;;;;;;;;;;7.10;49.32;102284.91;6214134;23;19960;-86
2023/01/26 07:05:34;;;;;;;;;;;;;;;7.10;49.35;102276.06;6243065;22;19908;-85
2023/01/26 07:08:01;;;;;;;;;;;;;;;7.10;49.16;102265.41;6242236;23;19912;-86
2023/01/26 07:10:26;;;;;;;;;;;;;;;7.10;49.34;102263.56;6242612;23;20350;-86
2023/01/26 07:12:52;;;;;;;;;;;;;;;7.11;49.64;102270.56;6242837;23;19907;-86
2023/01/26 07:15:17;;;;;;;;;;;;;;;7.10;49.54;102278.75;6242258;22;19935;-86
2023/01/26 07:17:42;;;;;;;;;;;;;;;7.10;49.39;102276.06;6242296;23;19935;-85
2023/01/26 07:20:08;;;;;;;;;;;;;;;7.11;49.22;102277.72;6243266;23;19908;-86
2023/01/26 07:22:34;;;;;;;;;;;;;;;7.13;49.54;102275.69;6242281;23;19919;-87
2023/01/26 07:24:59;;;;;;;;;;;;;;;7.15;49.27;102279.00;6242481;22;19908;-86
2023/01/26 07:27:24;;;;;;;;;;;;;;;7.17;49.39;102277.78;6242009;23;19986;-85
2023/01/26 07:29:50;;;;;;;;;;;;;;;7.19;49.51;102281.13;6214993;23;19908;-85
2023/01/26 07:32:15;;;;;;;;;;;;;;;7.21;49.24;102283.59;6240793;23;19908;-86
2023/01/26 07:34:41;;;;;;;;;;;;;;;7.22;49.03;102286.06;6241080;22;19915;-85
2023/01/26 07:37:06;;;;;;;;;;;;;;;7.19;49.35;102289.13;6242040;23;20273;-86
2023/01/26 07:39:32;;;;;;;;;;;;;;;7.20;49.01;102289.94;6242160;23;20033;-85
2023/01/26 07:41:57;;;;;;;;;;;;;;;7.20;49.04;102284.59;6242491;23;19919;-85
2023/01/26 07:44:22;;;;;;;;;;;;;;;7.21;49.28;102287.09;6241223;22;19912;-85
2023/01/26 07:46:48;;;;;;;;;;;;;;;7.23;49.03;102286.88;6242385;23;20331;-85
2023/01/26 07:49:13;;;;;;;;;;;;;;;7.22;48.94;102286.06;6241534;23;19912;-84
2023/01/26 07:51:38;;;;;;;;;;;;;;;7.22;49.06;102283.41;6242489;23;19908;-85
2023/01/26 07:54:04;;;;;;;;;;;;;;;7.23;49.46;102285.06;6242453;22;19930;-87
2023/01/26 07:56:30;;;;;;;;;;;;;;;7.23;48.92;102292.22;6241952;23;19918;-85
2023/01/26 07:58:55;;;;;;;;;;;;;;;7.25;48.96;102290.19;6243283;23;19908;-86
2023/01/26 08:01:21;;;;;;;;;;;;;;;7.27;49.16;102285.50;6244049;23;19986;-87
2023/01/26 08:03:49;;;;;;;;;;;;;;;7.30;49.35;102290.44;6244634;22;19914;-86
2023/01/26 08:06:15;;;;;;;;;;;;;;;7.31;49.21;102286.75;6244079;23;20320;-86
2023/01/26 08:08:41;;;;;;;;;;;;;;;7.33;49.13;102281.25;6244098;23;19973;-85
2023/01/26 08:11:07;;;;;;;;;;;;;;;7.33;49.07;102287.41;6244143;23;19907;-87
2023/01/26 08:13:32;;;;;;;;;;;;;;;7.33;48.89;102286.56;6244288;22;19935;-86
2023/01/26 08:16:05;;;;;;;;;;;;;;;7.32;48.86;102291.06;6244473;23;20329;-85
2023/01/26 08:18:30;;;;;;;;;;;;;;;7.31;49.09;102286.75;6243633;23;19939;-84
2023/01/26 08:20:56;;;;;;;;;;;;;;;7.30;48.69;102292.28;6244274;23;19962;-85
2023/01/26 08:23:22;;;;;;;;;;;;;;;7.31;49.07;102293.94;6244314;23;19911;-86
2023/01/26 08:25:47;;;;;;;;;;;;;;;7.33;48.74;102292.72;6244742;22;20258;-86
2023/01/26 08:28:12;;;;;;;;;;;;;;;7.35;48.50;102293.34;6243911;23;20263;-86
2023/01/26 08:30:38;;;;;;;;;;;;;;;7.33;48.97;102289.22;6244189;23;19914;-85
2023/01/26 08:33:04;;;;;;;;;;;;;;;7.30;48.53;102284.28;6244788;23;19907;-86
2023/01/26 08:35:32;;;;;;;;;;;;;;;7.31;48.56;102283.28;6216920;23;20342;-86
2023/01/26 08:37:58;;;;;;;;;;;;;;;7.32;48.54;102279.59;6244182;23;19918;-84
2023/01/26 08:40:24;;;;;;;;;;;;;;;7.34;48.61;102285.56;6244216;23;20244;-86
2023/01/26 08:42:53;;;;;;;;;;;;;;;7.37;48.59;102280.69;6242980;23;19939;-85
2023/01/26 08:45:18;;;;;;;;;;;;;;;7.41;49.07;102284.63;6243924;22;19939;-86
2023/01/26 08:47:47;;;;;;;;;;;;;;;7.44;48.56;102289.56;6243968;23;20352;-85
2023/01/26 08:50:12;;;;;;;;;;;;;;;7.44;48.49;102284.25;6243599;23;20037;-86
2023/01/26 08:52:38;;;;;;;;;;;;;;;7.47;48.75;102288.38;6244340;23;19938;-86
2023/01/26 08:55:03;;;;;;;;;;;;;;;7.47;48.56;102283.84;6243586;22;20348;-86
2023/01/26 08:57:29;;;;;;;;;;;;;;;7.48;48.42;102282.00;6243545;23;19919;-85
2023/01/26 08:59:54;;;;;;;;;;;;;;;7.46;48.25;102284.88;6244010;23;19962;-85
2023/01/26 09:02:19;;;;;;;;;;;;;;;7.46;48.28;102289.38;6243240;23;19974;-86
2023/01/26 09:04:45;;;;;;;;;;;;;;;7.45;48.15;102285.88;6244052;22;19974;-86
2023/01/26 09:07:10;;;;;;;;;;;;;;;7.43;48.47;102292.44;6243303;23;20379;-85
2023/01/26 09:09:35;;;;;;;;;;;;;;;7.40;48.22;102287.47;6243646;23;20469;-85
2023/01/26 09:12:01;;;;;;;;;;;;;;;7.40;48.59;102279.47;6243544;23;20442;-85
2023/01/26 09:14:27;;;;;;;;;;;;;;;7.39;48.32;102280.50;6216330;23;19982;-86
2023/01/26 09:16:53;;;;;;;;;;;;;;;7.35;48.11;102285.38;6243884;23;19908;-86
2023/01/26 09:19:18;;;;;;;;;;;;;;;7.36;48.22;102289.72;6242569;23;19961;-85
2023/01/26 09:21:43;;;;;;;;;;;;;;;7.39;48.36;102288.50;6243470;23;19989;-86
2023/01/26 09:24:09;;;;;;;;;;;;;;;7.39;48.16;102292.00;6243049;22;19923;-86
2023/01/26 09:26:35;;;;;;;;;;;;;;;7.38;48.10;102282.34;6242795;23;19907;-84
2023/01/26 09:29:00;;;;;;;;;;;;;;;7.40;47.85;102280.31;6216124;23;19912;-84
2023/01/26 09:31:26;;;;;;;;;;;;;;;7.40;48.00;102277.63;6243393;23;19908;-85
2023/01/26 09:33:51;;;;;;;;;;;;;;;7.39;47.84;102276.00;6242814;22;19912;-85
2023/01/26 09:36:16;;;;;;;;;;;;;;;7.37;47.72;102266.53;6242742;23;19911;-86
2023/01/26 09:38:42;;;;;;;;;;;;;;;7.36;47.71;102271.03;6242920;23;19908;-85
2023/01/26 09:41:13;;;;;;;;;;;;;;;7.32;47.87;102267.09;6243301;23;19939;-84
2023/01/26 09:43:42;;;;;;;;;;;;;;;7.29;47.68;102272.78;6241861;22;19908;-85
2023/01/26 09:46:26;;;;;;;;;;;;;;;7.27;47.77;102272.16;6242909;23;19912;-86
2023/01/26 09:48:57;;;;;;;;;;;;;;;7.29;48.15;102280.78;6242303;23;19961;-84
2023/01/26 09:51:28;;;;;;;;;;;;;;;7.30;48.09;102277.13;6215641;23;19918;-84
2023/01/26 09:53:56;;;;;;;;;;;;;;;7.36;47.81;102276.38;6243162;22;19942;-84
2023/01/26 09:56:27;;;;;;;;;;;;;;;7.39;47.53;102286.66;6241478;23;20312;-85
2023/01/26 09:58:59;;;;;;;;;;;;;;;7.42;47.50;102288.94;6242082;23;19912;-85
2023/01/26 10:01:35;;;;;;;;;;;;;;;7.42;47.72;102288.13;6243027;23;19912;-85
2023/01/26 10:04:04;;;;;;;;;;;;;;;7.42;47.50;102280.94;6243355;22;19908;-85
2023/01/26 10:06:31;;;;;;;;;;;;;;;7.40;47.28;102290.97;6242999;23;20343;-85
2023/01/26 10:09:10;;;;;;;;;;;;;;;7.36;47.32;102292.38;6243094;23;19966;-84
2023/01/26 10:11:38;;;;;;;;;;;;;;;7.31;47.41;102283.28;6242802;23;19922;-85
2023/01/26 10:14:13;;;;;;;;;;;;;;;7.30;47.71;102282.44;6216046;23;19911;-85
2023/01/26 10:16:39;;;;;;;;;;;;;;;7.33;47.83;102276.72;6242914;23;19911;-85
2023/01/26 10:19:10;;;;;;;;;;;;;;;7.37;47.59;102280.69;6242397;23;19953;-84
2023/01/26 10:21:38;;;;;;;;;;;;;;;7.41;47.37;102273.13;6243190;23;20372;-85
2023/01/26 10:24:04;;;;;;;;;;;;;;;7.42;47.45;102264.94;6242892;22;19934;-85
2023/01/26 10:26:31;;;;;;;;;;;;;;;7.44;47.55;102262.91;6242586;23;20344;-85
2023/01/26 10:28:57;;;;;;;;;;;;;;;7.43;47.24;102261.25;6242751;23;19918;-85
2023/01/26 10:31:24;;;;;;;;;;;;;;;7.44;47.50;102254.91;6242420;23;20010;-85
2023/01/26 10:33:52;;;;;;;;;;;;;;;7.48;47.19;102247.34;6242471;22;19954;-85
2023/01/26 10:36:17;;;;;;;;;;;;;;;7.48;47.01;102245.50;6240351;22;19919;-86
2023/01/26 10:38:44;;;;;;;;;;;;;;;7.49;47.61;102241.00;6240418;22;19915;-86
2023/01/26 10:41:12;;;;;;;;;;;;;;;7.49;47.08;102233.00;6241501;22;20351;-86
2023/01/26 10:43:40;;;;;;;;;;;;;;;7.50;47.16;102230.13;6241388;22;19934;-86
2023/01/26 10:46:05;;;;;;;;;;;;;;;7.53;47.16;102224.41;6215438;22;19919;-86
2023/01/26 10:48:31;;;;;;;;;;;;;;;7.55;46.91;102224.25;6210360;23;19912;-86
2023/01/26 10:51:13;;;;;;;;;;;;;;;7.55;47.01;102225.06;6211103;23;19934;-86
2023/01/26 10:53:40;;;;;;;;;;;;;;;7.55;47.21;102222.41;6210855;23;19950;-86
2023/01/26 10:56:16;;;;;;;;;;;;;;;7.53;47.06;102227.06;6209459;23;19912;-86
2023/01/26 10:58:47;;;;;;;;;;;;;;;7.54;47.14;102220.75;6211012;23;19908;-86
2023/01/26 11:01:14;;;;;;;;;;;;;;;7.55;47.58;102222.41;6211387;23;19939;-86
2023/01/26 11:03:40;;;;;;;;;;;;;;;7.58;47.19;102215.84;6210429;23;20339;-86
2023/01/26 11:06:06;;;;;;;;;;;;;;;7.62;47.04;102222.44;6210854;23;19997;-86
2023/01/26 11:08:36;;;;;;;;;;;;;;;7.61;47.05;102211.97;6210701;23;19912;-86
2023/01/26 11:11:02;;;;;;;;;;;;;;;7.60;47.19;102208.47;6210536;23;19912;-86
2023/01/26 11:13:28;;;;;;;;;;;;;;;7.63;47.17;102215.28;6210853;23;19908;-86
2023/01/26 11:16:10;;;;;;;;;;;;;;;7.64;46.96;102211.59;6210665;23;19940;-86
2023/01/26 11:18:54;;;;;;;;;;;;;;;7.62;46.53;102214.44;6210036;23;19908;-86
2023/01/26 11:21:26;;;;;;;;;;;;;;;7.59;46.78;102214.84;6210617;23;19919;-86
2023/01/26 11:24:03;;;;;;;;;;;;;;;7.60;47.09;102211.16;6211023;23;19908;-86
2023/01/26 11:26:35;;;;;;;;;;;;;;;7.60;46.70;102202.31;6209234;23;19961;-86
2023/01/26 11:29:06;;;;;;;;;;;;;;;7.58;46.83;102203.34;6210319;23;19999;-86
2023/01/26 11:31:50;;;;;;;;;;;;;;;7.60;47.11;102197.00;6211134;23;19908;-86
2023/01/26 11:34:54;;;;;;;;;;;;;;;7.60;46.91;102197.00;6210038;23;19914;-86
2023/01/26 11:37:19;;;;;;;;;;;;;;;7.61;47.05;102199.47;6088555;23;19925;-86
2023/01/26 11:39:51;;;;;;;;;;;;;;;7.64;46.95;102192.91;6087704;23;19909;-86
2023/01/26 11:42:42;;;;;;;;;;;;;;;7.66;46.88;102190.88;6148581;23;20189;-86
2023/01/26 11:45:16;;;;;;;;;;;;;;;7.68;47.00;102188.84;6160747;23;20203;-86
2023/01/26 11:47:55;;;;;;;;;;;;;;;7.68;47.14;102194.16;6207813;23;19919;-86
2023/01/26 11:50:27;;;;;;;;;;;;;;;7.68;47.18;102191.50;6207688;23;19912;-86
2023/01/26 11:52:58;;;;;;;;;;;;;;;7.69;47.11;102185.97;6206053;23;19991;-86
2023/01/26 11:55:23;;;;;;;;;;;;;;;7.69;46.63;102193.97;6207286;23;19981;-87
2023/01/26 11:58:01;;;;;;;;;;;;;;;7.67;46.63;102182.66;6207790;23;20332;-84
2023/01/26 12:00:39;;;;;;;;;;;;;;;7.65;46.98;102178.56;6203550;23;20188;-86
2023/01/26 12:03:05;;;;;;;;;;;;;;;7.66;46.86;102174.88;6202049;23;19990;-85
2023/01/26 12:05:40;;;;;;;;;;;;;;;7.66;46.91;102180.19;6202550;23;20151;-86
2023/01/26 12:08:11;;;;;;;;;;;;;;;7.66;46.96;102181.03;6203957;23;19916;-86
2023/01/26 12:10:40;;;;;;;;;;;;;;;7.67;47.06;102173.84;6204032;23;19912;-86
2023/01/26 12:13:25;;;;;;;;;;;;;;;7.68;47.07;102175.50;6204832;23;19958;-86
2023/01/26 12:15:54;;;;;;;;;;;;;;;7.70;46.73;102173.44;6203163;23;19912;-86
2023/01/26 12:18:26;;;;;;;;;;;;;;;7.69;46.97;102169.13;6205382;23;19919;-86
2023/01/26 12:21:02;;;;;;;;;;;;;;;7.67;46.68;102161.31;6206122;23;20398;-86
2023/01/26 12:23:43;;;;;;;;;;;;;;;7.67;46.75;102152.50;6203879;23;19912;-86
2023/01/26 12:26:11;;;;;;;;;;;;;;;7.67;47.04;102155.16;6204263;23;20351;-85
2023/01/26 12:28:43;;;;;;;;;;;;;;;7.66;46.71;102148.19;6205991;23;19978;-87
2023/01/26 12:31:24;;;;;;;;;;;;;;;7.69;46.64;102147.78;6201016;23;19912;-87
2023/01/26 12:33:51;;;;;;;;;;;;;;;7.69;46.64;102145.94;6204870;23;19983;-87
2023/01/26 12:36:19;;;;;;;;;;;;;;;7.68;47.09;102143.47;6229546;23;19919;-87
2023/01/26 12:39:06;;;;;;;;;;;;;;;7.65;46.54;102141.22;6235992;23;20098;-87
2023/01/26 12:41:37;;;;;;;;;;;;;;;7.60;46.71;102144.47;6204579;23;20266;-87
2023/01/26 12:44:21;;;;;;;;;;;;;;;7.60;46.99;102140.97;6235531;23;19994;-87
2023/01/26 12:46:53;;;;;;;;;;;;;;;7.54;46.72;102140.75;6235872;23;19911;-87
2023/01/26 12:49:22;;;;;;;;;;;;;;;7.55;46.77;102131.72;6236453;23;19922;-87
2023/01/26 12:51:50;;;;;;;;;;;;;;;7.53;46.69;102133.72;6238879;23;19911;-87
2023/01/26 12:54:22;;;;;;;;;;;;;;;7.52;47.09;102129.41;6237681;22;19911;-87
2023/01/26 12:56:52;;;;;;;;;;;;;;;7.52;46.99;102137.41;6237717;23;19912;-86
2023/01/26 12:59:20;;;;;;;;;;;;;;;7.54;46.84;102137.22;6233866;23;20359;-87
2023/01/26 13:01:46;;;;;;;;;;;;;;;7.52;46.97;102139.25;6236910;23;19916;-86
2023/01/26 13:04:15;;;;;;;;;;;;;;;7.50;47.25;102143.97;6235363;22;19930;-86
2023/01/26 13:06:41;;;;;;;;;;;;;;;7.50;46.90;102142.13;6211578;23;19911;-87
2023/01/26 13:09:22;;;;;;;;;;;;;;;7.51;47.38;102141.09;6235870;23;20004;-87
2023/01/26 13:11:53;;;;;;;;;;;;;;;7.52;46.83;102142.75;6238114;23;20229;-87
2023/01/26 13:14:35;;;;;;;;;;;;;;;7.54;46.89;102140.75;6237606;22;19919;-86
2023/01/26 13:17:16;;;;;;;;;;;;;;;7.55;47.23;102139.72;6237577;23;19911;-87
2023/01/26 13:19:41;;;;;;;;;;;;;;;7.53;47.11;102140.91;6238801;23;19915;-87
2023/01/26 13:22:33;;;;;;;;;;;;;;;7.52;46.88;102145.41;6209712;23;20121;-87
2023/01/26 13:25:11;;;;;;;;;;;;;;;7.52;46.99;102153.41;6229801;22;20003;-87
2023/01/26 13:27:37;;;;;;;;;;;;;;;7.53;46.93;102148.91;6237544;23;19916;-86
2023/01/26 13:30:03;;;;;;;;;;;;;;;7.50;46.83;102147.47;6237073;23;19914;-87